Time;durP1;ratioP1;P1;durP2;ratioP2;P2;SDS_P1;SDS_P2;PMS_P1;PMS_P2;Temp;Humidity;BMP_temperature;BMP_pressure;BME280_temperature;BME280_humidity;BME280_pressure;Samples;Min_cycle;Max_cycle;Signal;HPM_P1;HPM_P2
2023/06/04 00:00:16;;;;;;;15.95;8.25;;;;;;;18.81;86.20;99476.03;5051760;28;20045;-87
2023/06/04 00:02:42;;;;;;;16.30;8.02;;;;;;;18.70;86.54;99480.78;5050522;28;20059;-86
2023/06/04 00:05:07;;;;;;;15.55;7.88;;;;;;;18.65;85.96;99481.97;5051687;28;20407;-87
2023/06/04 00:07:33;;;;;;;17.23;7.80;;;;;;;18.40;85.42;99468.34;5050205;28;20106;-87
2023/06/04 00:09:58;;;;;;;9.20;7.80;;;;;;;18.36;85.60;99476.00;5050228;28;20491;-86
2023/06/04 00:12:24;;;;;;;10.48;6.97;;;;;;;18.22;85.84;99469.00;5049737;28;20032;-86
2023/06/04 00:14:49;;;;;;;11.82;7.75;;;;;;;18.17;85.93;99475.00;5051308;28;20119;-86
2023/06/04 00:17:15;;;;;;;9.68;7.07;;;;;;;18.21;87.24;99489.19;5051642;28;20032;-86
2023/06/04 00:19:41;;;;;;;8.52;6.63;;;;;;;18.10;87.08;99481.41;5045439;28;20559;-86
2023/06/04 00:22:07;;;;;;;7.97;7.10;;;;;;;18.20;87.70;99491.22;5031404;28;20083;-86
2023/06/04 00:24:34;;;;;;;18.45;7.28;;;;;;;18.00;86.76;99476.41;5044675;28;20036;-87
2023/06/04 00:26:59;;;;;;;10.20;7.43;;;;;;;18.06;86.80;99489.03;5051383;28;20025;-87
2023/06/04 00:29:25;;;;;;;15.77;6.97;;;;;;;18.15;86.21;99496.41;5051199;28;20025;-87
2023/06/04 00:31:50;;;;;;;12.05;7.10;;;;;;;17.95;84.37;99485.22;5051168;28;20491;-87
2023/06/04 00:34:17;;;;;;;13.85;7.25;;;;;;;17.92;84.16;99492.47;5050501;28;20477;-86
2023/06/04 00:36:43;;;;;;;18.15;7.85;;;;;;;17.88;84.77;99487.97;5051695;28;20025;-87
2023/06/04 00:39:09;;;;;;;13.10;7.18;;;;;;;17.92;84.43;99489.66;5050475;28;20094;-86
2023/06/04 00:41:34;;;;;;;13.88;7.05;;;;;;;17.87;83.76;99477.84;5051070;28;20029;-86
2023/06/04 00:44:01;;;;;;;10.38;7.05;;;;;;;18.11;83.96;99496.34;5052073;28;20017;-86
2023/06/04 00:46:27;;;;;;;13.10;8.02;;;;;;;18.32;83.38;99500.66;5052115;28;20514;-86
2023/06/04 00:48:54;;;;;;;11.52;7.55;;;;;;;18.07;82.38;99451.03;5052204;28;20028;-86
2023/06/04 00:51:20;;;;;;;7.70;6.82;;;;;;;18.38;82.66;99505.56;5052222;28;20504;-87
2023/06/04 00:53:49;;;;;;;11.05;7.15;;;;;;;18.28;81.84;99492.09;5041004;28;20048;-86
2023/06/04 00:56:15;;;;;;;16.98;6.70;;;;;;;18.36;82.28;99507.97;5051315;28;20021;-87
2023/06/04 00:58:42;;;;;;;8.48;6.68;;;;;;;18.29;82.35;99502.22;5051203;28;20025;-87
2023/06/04 01:01:15;;;;;;;7.35;5.82;;;;;;;18.22;81.95;99485.16;5050816;28;20028;-86
2023/06/04 01:03:45;;;;;;;9.93;6.97;;;;;;;18.34;82.20;99501.91;5050738;28;20013;-87
2023/06/04 01:06:28;;;;;;;8.63;6.38;;;;;;;18.40;82.34;99512.88;5050526;28;20020;-87
2023/06/04 01:08:56;;;;;;;11.60;6.75;;;;;;;18.34;81.19;99486.91;5048777;28;20023;-87
2023/06/04 01:11:32;;;;;;;12.10;6.90;;;;;;;18.33;81.88;99503.06;5049679;28;20112;-87
2023/06/04 01:13:58;;;;;;;10.02;5.97;;;;;;;18.34;81.72;99510.38;5051903;28;20049;-86
2023/06/04 01:16:25;;;;;;;12.27;6.38;;;;;;;18.15;82.47;99502.06;5050387;28;20035;-87
2023/06/04 01:18:51;;;;;;;7.95;5.97;;;;;;;18.21;82.62;99497.69;5051409;28;20483;-86
2023/06/04 01:21:18;;;;;;;9.00;6.53;;;;;;;18.09;82.90;99493.91;5050507;28;20115;-87
2023/06/04 01:24:00;;;;;;;8.57;5.88;;;;;;;18.17;82.67;99505.31;5050078;28;20059;-86
2023/06/04 01:26:30;;;;;;;14.13;6.65;;;;;;;18.05;82.69;99501.53;5051639;28;20521;-87
2023/06/04 01:28:58;;;;;;;8.35;6.63;;;;;;;17.92;83.18;99486.00;5049818;28;20517;-85
2023/06/04 01:31:25;;;;;;;11.48;6.05;;;;;;;18.09;83.08;99507.25;5050544;28;20036;-87
2023/06/04 01:33:55;;;;;;;8.73;5.75;;;;;;;18.00;82.32;99501.88;5060284;28;20052;-87
2023/06/04 01:36:22;;;;;;;15.05;6.35;;;;;;;18.15;82.45;99524.72;5070937;28;20028;-87
2023/06/04 01:38:48;;;;;;;10.30;6.15;;;;;;;17.93;82.75;99499.75;5053660;28;20537;-86
2023/06/04 01:41:13;;;;;;;9.32;5.57;;;;;;;17.88;83.62;99504.94;5053369;28;20028;-87
2023/06/04 01:43:39;;;;;;;12.07;7.28;;;;;;;17.88;83.29;99504.94;5053535;28;20028;-87
2023/06/04 01:46:04;;;;;;;10.18;6.88;;;;;;;18.08;82.84;99503.59;5052680;28;20056;-86
2023/06/04 01:48:31;;;;;;;7.55;6.38;;;;;;;18.18;82.54;99519.09;5053407;28;20047;-87
2023/06/04 01:50:57;;;;;;;13.65;6.53;;;;;;;18.17;81.49;99488.34;5055829;28;20027;-87
2023/06/04 01:53:23;;;;;;;9.57;5.82;;;;;;;18.28;81.89;99511.09;5057745;28;20025;-87
2023/06/04 01:55:49;;;;;;;13.18;6.78;;;;;;;18.19;81.43;99489.59;5057562;28;20032;-87
2023/06/04 01:58:17;;;;;;;7.45;6.50;;;;;;;18.35;80.91;99497.84;5057596;28;20016;-87
2023/06/04 02:00:43;;;;;;;9.80;7.00;;;;;;;18.48;79.96;99514.56;5057145;28;20021;-87
2023/06/04 02:03:10;;;;;;;9.10;6.68;;;;;;;18.51;80.09;99523.09;5074067;28;20107;-87
2023/06/04 02:05:36;;;;;;;10.95;6.45;;;;;;;18.22;81.64;99510.63;5056798;28;20025;-87
2023/06/04 02:08:04;;;;;;;9.70;7.05;;;;;;;18.28;81.31;99506.25;5057724;28;20107;-86
2023/06/04 02:10:30;;;;;;;15.32;6.57;;;;;;;18.22;81.16;99493.63;5056941;28;20521;-86
2023/06/04 02:13:03;;;;;;;6.75;6.05;;;;;;;18.34;82.44;99532.22;5074935;28;20024;-87
2023/06/04 02:15:30;;;;;;;7.55;5.70;;;;;;;18.49;81.81;99536.03;5057155;28;20116;-86
2023/06/04 02:18:15;;;;;;;11.32;6.95;;;;;;;18.27;82.01;99515.13;5073663;28;20029;-87
2023/06/04 02:20:41;;;;;;;11.07;6.85;;;;;;;18.46;81.79;99531.94;5056402;28;20028;-87
2023/06/04 02:23:07;;;;;;;10.63;6.78;;;;;;;18.28;82.01;99511.94;5057072;28;20017;-87
2023/06/04 02:25:32;;;;;;;8.10;6.30;;;;;;;18.26;83.67;99531.31;5056859;28;20025;-87
2023/06/04 02:27:58;;;;;;;14.13;7.25;;;;;;;18.29;82.74;99529.75;5056800;28;20012;-86
2023/06/04 02:30:23;;;;;;;10.85;7.18;;;;;;;18.30;82.19;99508.72;5056716;28;20050;-87
2023/06/04 02:32:50;;;;;;;14.55;6.95;;;;;;;18.43;82.05;99534.72;5056403;28;20487;-86
2023/06/04 02:35:17;;;;;;;11.70;6.93;;;;;;;18.31;81.56;99508.31;5056059;28;20052;-87
2023/06/04 02:37:43;;;;;;;22.35;7.57;;;;;;;18.28;81.59;99525.25;5038658;28;20029;-87
2023/06/04 02:40:10;;;;;;;8.85;6.30;;;;;;;18.35;81.83;99533.84;5050490;28;20036;-87
2023/06/04 02:42:35;;;;;;;14.25;7.70;;;;;;;18.28;82.39;99545.06;5056422;28;20498;-87
2023/06/04 02:45:01;;;;;;;17.02;8.45;;;;;;;18.18;83.49;99544.56;5074203;28;20025;-86
2023/06/04 02:47:27;;;;;;;11.43;7.75;;;;;;;18.16;84.04;99543.31;5073822;28;20103;-87
2023/06/04 02:49:52;;;;;;;12.93;7.63;;;;;;;18.30;83.72;99551.97;5055200;28;20107;-86
2023/06/04 02:52:18;;;;;;;21.73;7.90;;;;;;;18.20;84.14;99547.81;5073067;28;20102;-87
2023/06/04 02:54:43;;;;;;;18.83;7.90;;;;;;;18.06;83.85;99525.00;5056239;28;20036;-87
2023/06/04 02:57:09;;;;;;;13.48;8.73;;;;;;;18.29;84.12;99552.38;5056246;28;20043;-87
2023/06/04 02:59:36;;;;;;;15.93;8.63;;;;;;;18.24;84.67;99528.06;5073104;28;20498;-86
2023/06/04 03:02:02;;;;;;;17.42;10.65;;;;;;;18.18;84.21;99544.56;5054893;28;20503;-86
2023/06/04 03:04:33;;;;;;;19.17;10.70;;;;;;;17.94;84.06;99534.50;5054975;28;20093;-86
2023/06/04 03:07:11;;;;;;;26.65;9.73;;;;;;;18.03;84.12;99535.06;5049028;28;20112;-87
2023/06/04 03:09:36;;;;;;;20.05;9.73;;;;;;;18.13;85.10;99561.06;5055029;28;20487;-86
2023/06/04 03:12:03;;;;;;;12.05;8.32;;;;;;;18.26;85.98;99572.94;5055690;28;20119;-86
2023/06/04 03:14:32;;;;;;;13.93;8.55;;;;;;;18.37;85.08;99571.91;5055889;28;20021;-86
2023/06/04 03:17:07;;;;;;;13.50;8.48;;;;;;;18.40;84.93;99580.81;5055676;28;20054;-86
2023/06/04 03:19:35;;;;;;;15.38;8.60;;;;;;;17.95;86.87;99558.78;5073526;28;20544;-86
2023/06/04 03:22:05;;;;;;;13.43;8.05;;;;;;;18.20;86.78;99576.13;5055182;28;20562;-87
2023/06/04 03:24:34;;;;;;;10.60;8.82;;;;;;;18.25;86.24;99586.31;5055893;28;20021;-86
2023/06/04 03:27:00;;;;;;;13.20;7.63;;;;;;;18.19;85.63;99577.34;5054437;28;20061;-86
2023/06/04 03:29:26;;;;;;;10.93;7.78;;;;;;;18.20;86.98;99589.47;5055478;28;20056;-86
2023/06/04 03:31:51;;;;;;;12.57;7.80;;;;;;;18.21;87.03;99597.56;5055900;28;20012;-86
2023/06/04 03:34:16;;;;;;;12.30;7.10;;;;;;;18.14;86.54;99577.66;5052088;28;20427;-86
2023/06/04 03:36:42;;;;;;;14.65;8.13;;;;;;;18.39;86.48;99594.16;5051479;28;20411;-86
2023/06/04 03:39:08;;;;;;;20.08;8.52;;;;;;;18.40;84.75;99607.09;5051786;28;20029;-86
2023/06/04 03:41:33;;;;;;;11.55;7.05;;;;;;;18.19;83.54;99588.66;5051613;28;20041;-86
2023/06/04 03:44:02;;;;;;;10.55;5.85;;;;;;;18.27;82.78;99595.22;5051812;28;20510;-86
2023/06/04 03:46:31;;;;;;;20.40;8.25;;;;;;;18.44;82.49;99605.16;5051137;28;20120;-86
2023/06/04 03:48:57;;;;;;;8.73;6.97;;;;;;;18.47;81.88;99598.72;5051524;28;20573;-85
2023/06/04 03:51:26;;;;;;;9.05;6.82;;;;;;;18.29;82.42;99572.19;5050939;28;20033;-86
2023/06/04 03:53:51;;;;;;;11.30;6.82;;;;;;;18.41;81.92;99599.44;5047600;28;20091;-86
2023/06/04 03:56:17;;;;;;;9.98;6.75;;;;;;;18.38;81.88;99607.50;5031550;28;20029;-86
2023/06/04 03:58:42;;;;;;;8.38;6.63;;;;;;;18.60;80.92;99606.94;5039006;28;20487;-86
2023/06/04 04:01:10;;;;;;;12.90;7.20;;;;;;;18.55;79.53;99610.13;5048770;28;20553;-86
2023/06/04 04:03:36;;;;;;;10.68;6.65;;;;;;;18.62;77.77;99613.84;5037467;28;20036;-87
2023/06/04 04:06:01;;;;;;;11.90;7.05;;;;;;;18.67;78.72;99612.69;5039524;28;20419;-86
2023/06/04 04:08:31;;;;;;;14.68;6.55;;;;;;;18.54;79.28;99595.13;5051191;28;20033;-86
2023/06/04 04:11:00;;;;;;;10.80;7.10;;;;;;;18.76;80.24;99616.06;5049733;28;20029;-86
2023/06/04 04:13:25;;;;;;;8.30;6.65;;;;;;;18.82;80.65;99629.84;5050389;28;20116;-86
2023/06/04 04:15:52;;;;;;;12.07;7.45;;;;;;;18.87;79.74;99613.31;5051971;28;20032;-86
2023/06/04 04:18:21;;;;;;;15.45;7.70;;;;;;;18.87;77.97;99623.81;5050957;28;20438;-86
2023/06/04 04:20:47;;;;;;;9.07;6.72;;;;;;;18.95;78.62;99622.72;5050423;28;20025;-86
2023/06/04 04:23:13;;;;;;;9.07;7.15;;;;;;;18.93;78.12;99627.97;5051371;28;20515;-86
2023/06/04 04:25:39;;;;;;;8.57;7.03;;;;;;;18.94;77.89;99635.25;5047828;28;20040;-86
2023/06/04 04:28:08;;;;;;;9.85;5.45;;;;;;;18.68;77.96;99605.84;5048125;28;20037;-86
2023/06/04 04:30:36;;;;;;;7.82;6.03;;;;;;;18.93;77.19;99637.25;5050379;28;20029;-86
2023/06/04 04:33:05;;;;;;;10.18;6.03;;;;;;;18.97;76.14;99636.50;5051112;28;20055;-86
2023/06/04 04:35:32;;;;;;;9.48;6.07;;;;;;;19.08;75.96;99638.25;5051902;28;20415;-86
2023/06/04 04:37:58;;;;;;;16.17;7.00;;;;;;;18.77;78.81;99629.00;5070472;28;20161;-86
2023/06/04 04:40:24;;;;;;;9.90;5.93;;;;;;;18.68;79.87;99645.50;5049650;28;20024;-86
2023/06/04 04:42:49;;;;;;;10.50;6.88;;;;;;;18.58;80.16;99604.50;5053130;28;20039;-86
2023/06/04 04:45:18;;;;;;;9.35;6.47;;;;;;;18.84;81.00;99639.59;5053535;28;20051;-86
2023/06/04 04:47:43;;;;;;;8.02;7.00;;;;;;;18.73;80.62;99624.50;5053768;28;20061;-86
2023/06/04 04:50:10;;;;;;;8.68;7.45;;;;;;;18.79;80.56;99640.75;5053134;28;20024;-86
2023/06/04 04:52:35;;;;;;;12.38;7.72;;;;;;;18.62;81.27;99635.69;5063252;28;20032;-85
2023/06/04 04:55:01;;;;;;;8.80;6.60;;;;;;;18.61;81.83;99632.06;5070562;28;20170;-86
2023/06/04 04:57:26;;;;;;;8.77;6.97;;;;;;;18.71;81.30;99646.75;5070722;28;20020;-85
2023/06/04 04:59:52;;;;;;;13.55;8.07;;;;;;;18.57;80.58;99617.00;5059172;28;20032;-85
2023/06/04 05:02:17;;;;;;;10.73;7.82;;;;;;;18.75;80.20;99648.38;5053412;28;20043;-85
2023/06/04 05:04:43;;;;;;;8.88;7.72;;;;;;;18.76;80.62;99654.88;5052832;28;20266;-85
2023/06/04 05:07:08;;;;;;;12.68;8.73;;;;;;;18.58;79.44;99649.00;5053466;28;20475;-85
2023/06/04 05:09:34;;;;;;;13.75;8.25;;;;;;;18.77;80.40;99659.34;5071430;28;20036;-85
2023/06/04 05:12:00;;;;;;;16.48;7.63;;;;;;;18.79;81.43;99662.59;5053289;28;20033;-85
2023/06/04 05:14:25;;;;;;;9.65;7.78;;;;;;;18.91;80.45;99655.88;5053637;28;20055;-86
2023/06/04 05:16:51;;;;;;;10.23;7.75;;;;;;;19.06;79.84;99674.69;5052286;28;20491;-85
2023/06/04 05:19:16;;;;;;;11.60;8.82;;;;;;;19.09;79.90;99664.59;5044332;28;20033;-85
2023/06/04 05:21:43;;;;;;;10.23;7.38;;;;;;;18.99;78.94;99643.38;5050387;28;20033;-85
2023/06/04 05:24:09;;;;;;;12.23;8.18;;;;;;;19.20;78.50;99671.19;5049650;28;20025;-86
2023/06/04 05:26:35;;;;;;;12.02;7.60;;;;;;;19.07;77.85;99639.47;5068865;28;20028;-86
2023/06/04 05:29:01;;;;;;;11.27;7.68;;;;;;;19.25;79.00;99686.22;5052151;28;20578;-86
2023/06/04 05:31:27;;;;;;;10.88;8.30;;;;;;;19.22;79.12;99677.28;5051780;28;20475;-86
2023/06/04 05:33:52;;;;;;;18.67;9.68;;;;;;;19.21;79.79;99677.66;5047309;28;20049;-86
2023/06/04 05:36:19;;;;;;;11.65;7.88;;;;;;;19.21;79.51;99680.50;5049003;28;20025;-86
2023/06/04 05:38:45;;;;;;;13.75;8.60;;;;;;;18.89;80.03;99669.63;5048534;28;20102;-86
2023/06/04 05:41:11;;;;;;;13.38;7.80;;;;;;;19.20;79.58;99690.22;5049082;28;20780;-87
2023/06/04 05:43:37;;;;;;;15.52;8.75;;;;;;;19.27;80.19;99683.81;5050133;28;20043;-87
2023/06/04 05:46:07;;;;;;;8.90;7.60;;;;;;;19.29;79.56;99689.91;5048940;28;20045;-87
2023/06/04 05:48:32;;;;;;;;;;;;;;;19.07;79.42;99696.16;5049595;28;20016;-87
2023/06/04 05:51:01;;;;;;;13.75;8.98;;;;;;;19.12;80.59;99695.00;5046270;28;19971;-87
2023/06/04 05:53:26;;;;;;;43.17;10.07;;;;;;;19.07;78.23;99698.19;5044739;28;20380;-87
2023/06/04 05:55:52;;;;;;;16.80;7.47;;;;;;;19.24;77.26;99688.22;5049189;28;20032;-87
2023/06/04 05:58:17;;;;;;;15.05;9.13;;;;;;;19.23;78.07;99683.75;5048961;28;20025;-86
2023/06/04 06:00:44;;;;;;;13.07;8.45;;;;;;;19.33;78.68;99693.59;5049495;28;20032;-88
2023/06/04 06:03:09;;;;;;;11.88;8.80;;;;;;;19.46;78.02;99706.28;5048665;28;20021;-88
2023/06/04 06:05:35;;;;;;;11.73;8.68;;;;;;;19.62;77.43;99706.03;5048983;28;20503;-85
2023/06/04 06:08:01;;;;;;;18.08;8.27;;;;;;;19.60;77.12;99711.25;5048086;28;20024;-86
2023/06/04 06:10:26;;;;;;;12.52;7.82;;;;;;;19.52;76.76;99691.75;5050027;28;20107;-87
2023/06/04 06:12:52;;;;;;;10.93;7.30;;;;;;;19.39;76.59;99694.06;5048578;28;20418;-87
2023/06/04 06:15:17;;;;;;;10.10;7.72;;;;;;;19.52;75.25;99711.59;5048899;28;20032;-86
2023/06/04 06:17:43;;;;;;;11.52;8.30;;;;;;;19.64;76.33;99716.97;5047018;28;20033;-86
2023/06/04 06:20:09;;;;;;;9.88;8.52;;;;;;;19.68;75.84;99723.53;5048548;28;20032;-86
2023/06/04 06:22:35;;;;;;;12.23;8.00;;;;;;;19.79;76.61;99720.75;5047920;28;20039;-87
2023/06/04 06:25:02;;;;;;;12.23;8.48;;;;;;;19.84;75.95;99723.22;5049901;28;20411;-87
2023/06/04 06:27:28;;;;;;;10.52;8.75;;;;;;;19.83;75.67;99726.47;5048678;28;20116;-87
2023/06/04 06:29:53;;;;;;;10.70;8.63;;;;;;;19.56;76.35;99696.25;5046919;28;20127;-87
2023/06/04 06:32:19;;;;;;;12.27;8.20;;;;;;;19.68;76.27;99725.53;5047794;28;20087;-86
2023/06/04 06:34:44;;;;;;;21.80;9.38;;;;;;;19.67;78.17;99727.56;5047477;28;20534;-86
2023/06/04 06:37:10;;;;;;;14.13;9.88;;;;;;;19.79;77.06;99729.28;5052160;28;20075;-86
2023/06/04 06:39:35;;;;;;;11.00;8.30;;;;;;;19.83;75.46;99729.31;5040096;28;20024;-85
2023/06/04 06:42:01;;;;;;;21.05;9.07;;;;;;;19.88;76.81;99735.44;5053011;28;20179;-87
2023/06/04 06:44:27;;;;;;;19.65;9.13;;;;;;;19.80;76.21;99727.28;5054839;28;20083;-88
2023/06/04 06:46:52;;;;;;;14.07;9.05;;;;;;;19.73;76.46;99728.81;5052178;28;20029;-87
2023/06/04 06:49:18;;;;;;;15.38;9.68;;;;;;;19.75;77.95;99745.47;5048438;28;20032;-88
2023/06/04 06:51:43;;;;;;;10.40;9.18;;;;;;;19.72;76.92;99726.38;5045617;28;20495;-88
2023/06/04 06:54:09;;;;;;;14.35;9.45;;;;;;;19.91;77.20;99739.53;5053032;28;20077;-86
2023/06/04 06:56:35;;;;;;;14.85;9.00;;;;;;;19.89;75.95;99733.41;5052862;28;20028;-87
2023/06/04 06:59:01;;;;;;;16.40;10.80;;;;;;;19.92;78.41;99721.28;5050235;28;20094;-87
2023/06/04 07:01:26;;;;;;;12.48;10.20;;;;;;;20.04;76.39;99717.34;5046841;28;20029;-86
2023/06/04 07:03:52;;;;;;;15.57;10.15;;;;;;;20.11;77.16;99708.06;5053690;28;20036;-87
2023/06/04 07:06:18;;;;;;;12.38;10.32;;;;;;;20.00;75.99;99713.69;5053307;28;20037;-88
2023/06/04 07:08:43;;;;;;;21.48;9.95;;;;;;;19.98;76.59;99722.56;5056572;28;20171;-86
2023/06/04 07:11:11;;;;;;;14.70;10.23;;;;;;;20.12;75.42;99744.59;5051899;28;20059;-86
2023/06/04 07:13:38;;;;;;;16.75;10.18;;;;;;;20.05;76.14;99721.81;5051446;28;20057;-85
2023/06/04 07:16:04;;;;;;;13.82;9.57;;;;;;;20.11;76.23;99731.59;5052909;28;20075;-86
2023/06/04 07:18:29;;;;;;;16.63;11.32;;;;;;;20.38;75.49;99736.22;5066506;28;20033;-85
2023/06/04 07:20:55;;;;;;;16.45;11.95;;;;;;;20.71;73.90;99752.28;5071065;28;20032;-87
2023/06/04 07:23:20;;;;;;;16.80;11.18;;;;;;;21.03;73.61;99759.34;5067680;28;20036;-84
2023/06/04 07:25:46;;;;;;;21.98;13.70;;;;;;;21.09;73.15;99748.41;5086354;28;20059;-85
2023/06/04 07:28:11;;;;;;;18.58;11.50;;;;;;;21.35;73.44;99757.84;5069121;28;20036;-84
2023/06/04 07:30:38;;;;;;;16.13;12.57;;;;;;;21.38;72.53;99752.16;5066990;28;20056;-84
2023/06/04 07:33:03;;;;;;;16.20;12.15;;;;;;;21.58;74.29;99729.00;5067330;28;20100;-85
2023/06/04 07:35:29;;;;;;;19.38;11.68;;;;;;;21.78;71.57;99737.19;5059700;28;20054;-86
2023/06/04 07:37:54;;;;;;;18.33;11.75;;;;;;;21.64;72.07;99727.41;5049059;28;20033;-87
2023/06/04 07:40:23;;;;;;;17.58;12.00;;;;;;;21.82;71.52;99767.31;5055456;28;20480;-86
2023/06/04 07:42:49;;;;;;;19.08;10.98;;;;;;;21.84;70.90;99764.84;5074442;28;20036;-86
2023/06/04 07:45:15;;;;;;;12.82;9.00;;;;;;;21.65;70.73;99766.03;5055447;28;20410;-88
2023/06/04 07:47:41;;;;;;;14.45;10.07;;;;;;;21.81;70.64;99764.84;5055153;28;20410;-86
2023/06/04 07:50:07;;;;;;;15.98;8.98;;;;;;;21.82;69.67;99766.47;5073930;28;20027;-87
2023/06/04 07:52:33;;;;;;;12.95;9.40;;;;;;;21.86;67.92;99773.00;5055271;28;20416;-89
2023/06/04 07:54:59;;;;;;;12.05;9.13;;;;;;;22.08;67.16;99776.66;5055637;28;20058;-89
2023/06/04 07:57:25;;;;;;;11.32;8.57;;;;;;;22.32;67.86;99774.22;5043330;28;20566;-88
2023/06/04 07:59:51;;;;;;;13.90;8.18;;;;;;;22.20;65.70;99766.88;5035419;28;20163;-88
2023/06/04 08:02:17;;;;;;;10.90;8.20;;;;;;;22.28;65.31;99771.38;5051784;28;20025;-89
2023/06/04 08:04:43;;;;;;;10.52;9.40;;;;;;;22.36;66.36;99783.56;5052205;28;20484;-89
2023/06/04 08:07:10;;;;;;;12.20;8.57;;;;;;;22.23;66.11;99773.81;5052329;28;20048;-89
2023/06/04 08:09:36;;;;;;;11.82;8.52;;;;;;;22.24;65.71;99764.88;5051848;28;20039;-88
2023/06/04 08:12:02;;;;;;;10.63;8.50;;;;;;;22.17;64.95;99784.78;5055410;28;20067;-90
2023/06/04 08:14:27;;;;;;;13.35;9.50;;;;;;;22.11;64.94;99777.91;5051862;28;20483;-90
2023/06/04 08:16:53;;;;;;;15.63;9.65;;;;;;;22.29;65.00;99752.25;5071829;28;20036;-89
2023/06/04 08:19:19;;;;;;;11.55;8.23;;;;;;;22.43;63.50;99782.72;5055502;28;20032;-89
2023/06/04 08:21:45;;;;;;;19.83;8.98;;;;;;;22.42;63.82;99775.41;5073028;28;20028;-89
2023/06/04 08:24:11;;;;;;;15.55;8.70;;;;;;;22.46;62.80;99770.53;5055481;28;20111;-90
2023/06/04 08:26:37;;;;;;;13.73;9.30;;;;;;;22.43;60.97;99766.47;5055158;28;20126;-89
2023/06/04 08:29:05;;;;;;;12.70;9.25;;;;;;;22.49;64.90;99780.31;5055042;28;20027;-89
2023/06/04 08:31:31;;;;;;;12.48;10.27;;;;;;;22.32;65.69;99782.75;5053373;28;20067;-90
2023/06/04 08:33:57;;;;;;;10.00;7.68;;;;;;;22.22;64.71;99772.19;5054945;28;20091;-89
2023/06/04 08:36:22;;;;;;;9.13;6.70;;;;;;;22.37;61.70;99790.09;5055004;28;20025;-87
2023/06/04 08:38:52;;;;;;;25.40;7.78;;;;;;;22.16;59.55;99763.22;5054789;28;20074;-89
2023/06/04 08:41:34;;;;;;;12.43;7.25;;;;;;;22.44;62.73;99790.06;5054572;28;20021;-88
2023/06/04 08:44:01;;;;;;;15.32;7.60;;;;;;;22.47;63.21;99757.09;5053909;28;20028;-90
2023/06/04 08:46:28;;;;;;;12.52;7.40;;;;;;;22.51;63.83;99789.28;5052122;28;20407;-88
2023/06/04 08:48:56;;;;;;;10.65;6.72;;;;;;;22.60;60.32;99786.00;5054137;28;20021;-92
2023/06/04 08:51:21;;;;;;;9.95;7.80;;;;;;;22.89;60.82;99775.34;5051325;28;20029;-89
2023/06/04 08:53:50;;;;;;;9.82;7.32;;;;;;;22.98;62.24;99781.41;5050127;28;20403;-88
2023/06/04 08:56:17;;;;;;;9.55;6.53;;;;;;;23.31;58.14;99789.88;5052428;28;20099;-88
2023/06/04 08:58:44;;;;;;;7.07;5.95;;;;;;;23.46;60.93;99776.31;5051483;28;20040;-90
2023/06/04 09:01:10;;;;;;;9.95;6.47;;;;;;;23.58;59.94;99795.03;5052772;28;20024;-89
2023/06/04 09:03:37;;;;;;;10.00;5.95;;;;;;;23.43;59.22;99762.91;5054441;28;20054;-89
2023/06/04 09:06:03;;;;;;;11.48;5.80;;;;;;;23.51;54.16;99757.97;5053784;28;20089;-89
2023/06/04 09:08:34;;;;;;;9.05;6.35;;;;;;;23.77;55.42;99792.84;5053761;28;20028;-90
2023/06/04 09:11:04;;;;;;;9.15;4.70;;;;;;;23.67;50.99;99797.41;5040906;28;20017;-88
2023/06/04 09:13:32;;;;;;;8.02;4.90;;;;;;;23.83;54.73;99806.31;5053254;28;20050;-88
2023/06/04 09:16:07;;;;;;;10.50;4.80;;;;;;;23.91;53.35;99801.34;5053314;28;20534;-90
2023/06/04 09:18:33;;;;;;;10.95;5.28;;;;;;;23.79;53.68;99810.41;5052918;28;20066;-88
2023/06/04 09:21:08;;;;;;;7.78;4.75;;;;;;;23.60;51.50;99781.16;5053343;28;20511;-88
2023/06/04 09:23:44;;;;;;;8.68;4.10;;;;;;;23.75;50.95;99804.72;5051640;28;20070;-88
2023/06/04 09:26:10;;;;;;;4.85;4.05;;;;;;;23.57;51.72;99799.13;5037560;28;20028;-89
2023/06/04 09:28:42;;;;;;;6.43;4.40;;;;;;;23.59;49.97;99805.22;5033151;28;20114;-88
2023/06/04 09:31:16;;;;;;;8.15;4.25;;;;;;;23.39;49.50;99793.50;5051006;28;20522;-87
2023/06/04 09:33:44;;;;;;;8.73;5.07;;;;;;;23.48;50.18;99810.16;5050852;28;20122;-89
2023/06/04 09:36:10;;;;;;;9.75;5.47;;;;;;;23.61;52.79;99791.34;5051274;28;20407;-88
2023/06/04 09:38:36;;;;;;;10.52;4.22;;;;;;;23.55;50.13;99759.56;5051053;28;20112;-88
2023/06/04 09:41:04;;;;;;;7.47;4.28;;;;;;;23.80;49.14;99803.47;5033354;28;20570;-88
2023/06/04 09:43:31;;;;;;;5.88;4.80;;;;;;;23.60;49.57;99806.03;5038877;28;20035;-89
2023/06/04 09:46:14;;;;;;;6.20;4.55;;;;;;;23.89;48.80;99800.97;5049159;28;20417;-88
2023/06/04 09:48:41;;;;;;;7.60;4.20;;;;;;;23.83;46.89;99802.63;5045549;28;20028;-89
2023/06/04 09:51:19;;;;;;;9.18;4.25;;;;;;;24.16;50.40;99803.22;5053307;28;20021;-88
2023/06/04 09:53:58;;;;;;;29.98;5.68;;;;;;;24.32;48.74;99805.56;5053384;28;20086;-89
2023/06/04 09:56:24;;;;;;;5.03;4.22;;;;;;;24.11;49.78;99800.81;5047734;28;20498;-88
2023/06/04 09:58:53;;;;;;;5.13;4.43;;;;;;;24.11;49.02;99789.38;5068261;28;20039;-88
2023/06/04 10:01:20;;;;;;;6.70;5.37;;;;;;;24.33;47.86;99780.63;5047525;28;20526;-88
2023/06/04 10:03:50;;;;;;;6.07;4.68;;;;;;;24.54;49.49;99805.31;5052512;28;20028;-87
2023/06/04 10:06:17;;;;;;;9.40;4.18;;;;;;;24.42;48.28;99803.81;5069491;28;20091;-90
2023/06/04 10:08:44;;;;;;;8.50;4.88;;;;;;;24.33;50.40;99789.19;5053067;28;20107;-89
2023/06/04 10:11:13;;;;;;;6.10;4.43;;;;;;;24.45;50.69;99791.53;5055158;28;20078;-95
2023/06/04 10:13:51;;;;;;;8.27;4.80;;;;;;;24.51;51.63;99800.47;5058312;28;20020;-91
2023/06/04 10:16:20;;;;;;;9.38;4.75;;;;;;;24.57;49.08;99769.38;5075082;28;20059;-91
2023/06/04 10:18:45;;;;;;;13.20;6.97;;;;;;;24.57;51.07;99786.53;5056603;28;20058;-91
2023/06/04 10:21:13;;;;;;;16.33;6.13;;;;;;;24.74;52.10;99802.69;5057459;28;20021;-91
2023/06/04 10:23:39;;;;;;;8.25;5.20;;;;;;;24.85;50.33;99779.72;5056910;28;20499;-89
2023/06/04 10:26:04;;;;;;;14.48;5.38;;;;;;;24.78;50.75;99779.78;5056953;28;20090;-90
2023/06/04 10:28:30;;;;;;;6.13;5.05;;;;;;;24.91;50.29;99778.00;5057612;28;20062;-89
2023/06/04 10:30:55;;;;;;;13.55;9.23;;;;;;;24.69;50.98;99765.97;5055842;28;20025;-87
2023/06/04 10:33:23;;;;;;;9.95;5.65;;;;;;;24.98;50.90;99787.75;5072371;28;20025;-88
2023/06/04 10:35:51;;;;;;;17.23;6.00;;;;;;;25.11;51.31;99788.00;5055082;28;20024;-88
2023/06/04 10:38:18;;;;;;;5.45;4.90;;;;;;;25.18;50.26;99770.72;5055060;28;20453;-87
2023/06/04 10:40:44;;;;;;;10.57;5.88;;;;;;;25.18;47.83;99790.75;5054699;28;20368;-91
2023/06/04 10:43:12;;;;;;;9.68;4.63;;;;;;;24.91;49.94;99768.63;5065585;28;20032;-89
2023/06/04 10:45:37;;;;;;;6.60;5.53;;;;;;;25.07;51.81;99754.50;5050084;28;20035;-90
2023/06/04 10:48:05;;;;;;;8.85;5.85;;;;;;;25.77;51.12;99775.25;5055651;28;20020;-89
2023/06/04 10:50:35;;;;;;;6.20;5.50;;;;;;;25.47;50.64;99778.94;5055831;28;20419;-90
2023/06/04 10:53:04;;;;;;;;;;;;;;;25.86;49.38;99777.56;5075118;28;20095;-90
2023/06/04 10:55:30;;;;;;;10.88;6.97;;;;;;;25.84;50.91;99785.81;5054319;28;20295;-90
2023/06/04 10:58:00;;;;;;;9.35;6.63;;;;;;;25.35;49.81;99783.19;5074423;28;20048;-90
2023/06/04 11:00:45;;;;;;;11.52;7.28;;;;;;;24.85;52.92;99761.72;5056321;28;20024;-89
2023/06/04 11:03:14;;;;;;;10.45;5.82;;;;;;;25.01;50.64;99772.56;5053865;28;20029;-91
2023/06/04 11:05:45;;;;;;;8.35;5.70;;;;;;;24.84;49.65;99735.19;5053473;28;20029;-90
2023/06/04 11:08:14;;;;;;;10.70;6.35;;;;;;;25.27;48.71;99775.94;5053272;28;20028;-89
2023/06/04 11:10:42;;;;;;;5.88;5.28;;;;;;;25.52;47.04;99767.03;5055612;28;20021;-89
2023/06/04 11:13:08;;;;;;;9.05;5.63;;;;;;;25.51;49.48;99731.06;5055656;28;20418;-89
2023/06/04 11:15:48;;;;;;;5.35;4.82;;;;;;;25.42;47.57;99747.94;5055181;28;20033;-89
2023/06/04 11:18:18;;;;;;;6.93;4.72;;;;;;;25.58;45.90;99773.09;5055185;28;20027;-89
2023/06/04 11:20:47;;;;;;;7.00;4.50;;;;;;;25.14;44.71;99767.91;5036259;28;20492;-89
2023/06/04 11:23:15;;;;;;;5.57;4.95;;;;;;;25.09;45.82;99746.31;5042957;28;20115;-89
2023/06/04 11:25:45;;;;;;;10.02;4.80;;;;;;;25.56;46.63;99770.66;5056230;28;20043;-89
2023/06/04 11:28:15;;;;;;;;;;;;;;;26.06;46.85;99779.69;5057371;28;20490;-89